Time;durP1;ratioP1;P1;durP2;ratioP2;P2;SDS_P1;SDS_P2;PMS_P1;PMS_P2;Temp;Humidity;BMP_temperature;BMP_pressure;BME280_temperature;BME280_humidity;BME280_pressure;Samples;Min_cycle;Max_cycle;Signal;HPM_P1;HPM_P2
2023/05/14 00:00:43;;;;;;;3.53;1.60;;;;;;;6.86;100.00;92481.06;4951467;29;20035;-74
2023/05/14 00:03:08;;;;;;;2.78;1.48;;;;;;;6.86;100.00;92475.84;4934900;29;20036;-74
2023/05/14 00:05:34;;;;;;;3.28;1.60;;;;;;;6.87;100.00;92474.81;4951793;29;20501;-74
2023/05/14 00:07:59;;;;;;;3.25;1.65;;;;;;;6.87;100.00;92469.63;4951393;29;20070;-74
2023/05/14 00:10:26;;;;;;;2.40;1.42;;;;;;;6.86;100.00;92470.66;4935363;29;20087;-74
2023/05/14 00:12:51;;;;;;;2.53;1.60;;;;;;;6.84;100.00;92464.16;4935137;28;20145;-74
2023/05/14 00:15:17;;;;;;;2.70;1.50;;;;;;;6.87;100.00;92459.22;4946634;29;20486;-74
2023/05/14 00:17:43;;;;;;;2.72;1.60;;;;;;;6.92;100.00;92463.63;4934850;29;20454;-74
2023/05/14 00:20:10;;;;;;;2.55;1.60;;;;;;;6.94;100.00;92452.97;4952164;29;20032;-74
2023/05/14 00:22:38;;;;;;;2.22;1.45;;;;;;;6.97;100.00;92452.44;4951823;28;20043;-74
2023/05/14 00:25:05;;;;;;;2.22;1.38;;;;;;;6.95;100.00;92451.91;4951919;29;20020;-74
2023/05/14 00:27:30;;;;;;;3.42;1.50;;;;;;;6.93;100.00;92451.38;4932671;29;20066;-74
2023/05/14 00:29:56;;;;;;;2.35;1.40;;;;;;;6.92;100.00;92444.63;4937167;29;20053;-73
2023/05/14 00:32:22;;;;;;;2.03;1.42;;;;;;;6.91;100.00;92443.06;4955931;29;20088;-74
2023/05/14 00:34:48;;;;;;;3.13;1.60;;;;;;;6.90;100.00;92437.09;4955850;28;20023;-74
2023/05/14 00:37:14;;;;;;;2.30;1.30;;;;;;;6.88;100.00;92437.34;4954376;29;20043;-74
2023/05/14 00:39:39;;;;;;;2.58;1.38;;;;;;;6.91;100.00;92432.66;4954026;29;20035;-74
2023/05/14 00:42:05;;;;;;;2.78;1.38;;;;;;;6.96;100.00;92424.81;4938467;29;20035;-74
2023/05/14 00:44:31;;;;;;;2.00;1.30;;;;;;;6.95;100.00;92438.91;4938626;29;20027;-74
2023/05/14 00:46:58;;;;;;;4.47;1.40;;;;;;;6.94;100.00;92427.72;4954671;29;20053;-74
2023/05/14 00:49:27;;;;;;;2.65;1.60;;;;;;;6.94;100.00;92424.34;4955296;29;20027;-74
2023/05/14 00:51:53;;;;;;;2.40;1.63;;;;;;;6.92;100.00;92416.00;4953008;29;20054;-74
2023/05/14 00:54:19;;;;;;;1.73;1.30;;;;;;;6.91;100.00;92411.84;4917799;29;20056;-74
2023/05/14 00:56:46;;;;;;;2.40;1.60;;;;;;;6.94;100.00;92414.69;4935997;29;20032;-74
2023/05/14 00:59:12;;;;;;;2.33;1.50;;;;;;;6.97;100.00;92413.38;4919184;29;20028;-74
2023/05/14 01:01:38;;;;;;;2.28;1.50;;;;;;;6.97;100.00;92416.00;4919245;29;20502;-74
2023/05/14 01:04:05;;;;;;;2.30;1.50;;;;;;;6.94;100.00;92412.09;4935282;29;20118;-74
2023/05/14 01:06:58;;;;;;;2.08;1.50;;;;;;;6.93;100.00;92404.53;4918802;29;20048;-74
2023/05/14 01:09:43;;;;;;;2.35;1.33;;;;;;;6.90;100.00;92403.25;4934403;29;20040;-74
2023/05/14 01:12:28;;;;;;;2.28;1.50;;;;;;;6.91;100.00;92402.19;4935873;29;20048;-74
2023/05/14 01:15:04;;;;;;;6.15;1.50;;;;;;;6.92;100.00;92401.16;4935944;29;20042;-74
2023/05/14 01:17:32;;;;;;;4.55;1.33;;;;;;;6.91;100.00;92399.59;4933107;29;20051;-74
2023/05/14 01:19:59;;;;;;;2.78;1.50;;;;;;;6.88;100.00;92398.31;4935919;29;20059;-74
2023/05/14 01:22:24;;;;;;;2.40;1.40;;;;;;;6.88;100.00;92393.09;4935711;29;20426;-74
2023/05/14 01:24:50;;;;;;;3.30;1.67;;;;;;;6.87;100.00;92394.16;4918731;29;20154;-74
2023/05/14 01:27:20;;;;;;;4.22;1.48;;;;;;;6.86;100.00;92387.38;4934345;29;20039;-74
2023/05/14 01:29:59;;;;;;;3.63;1.40;;;;;;;6.87;100.00;92390.78;4935426;29;20269;-74
2023/05/14 01:32:27;;;;;;;2.38;1.40;;;;;;;6.86;100.00;92389.97;4934505;29;20090;-74
2023/05/14 01:34:55;;;;;;;2.28;1.40;;;;;;;6.87;100.00;92386.34;4934173;29;20556;-74
2023/05/14 01:37:21;;;;;;;3.17;1.58;;;;;;;6.86;100.00;92387.38;4934192;29;20043;-74
2023/05/14 01:39:49;;;;;;;2.75;1.50;;;;;;;6.84;100.00;92384.25;4917589;29;20365;-74
2023/05/14 01:42:15;;;;;;;2.42;1.52;;;;;;;6.85;100.00;92383.22;4935206;29;20038;-74
2023/05/14 01:44:41;;;;;;;2.10;1.40;;;;;;;6.89;100.00;92380.88;4935506;29;20481;-74
2023/05/14 01:47:10;;;;;;;2.40;1.58;;;;;;;6.91;100.00;92376.19;4918818;29;20044;-74
2023/05/14 01:49:36;;;;;;;3.20;1.50;;;;;;;6.90;100.00;92379.06;4917630;29;20031;-74
2023/05/14 01:52:02;;;;;;;2.58;1.50;;;;;;;6.91;100.00;92370.97;4935132;29;20035;-74
2023/05/14 01:54:28;;;;;;;1.90;1.30;;;;;;;6.93;100.00;92368.09;4933497;29;20127;-74
2023/05/14 01:56:53;;;;;;;2.50;1.50;;;;;;;6.93;100.00;92368.88;4934793;29;20114;-74
2023/05/14 01:59:19;;;;;;;2.55;1.40;;;;;;;6.90;100.00;92368.66;4917763;29;20047;-74
2023/05/14 02:01:44;;;;;;;2.25;1.42;;;;;;;6.87;100.00;92364.75;4902327;29;20039;-73
2023/05/14 02:04:10;;;;;;;3.33;1.65;;;;;;;6.90;100.00;92363.44;4918109;29;20090;-74
2023/05/14 02:06:36;;;;;;;2.83;1.30;;;;;;;6.89;100.00;92360.06;4934777;29;20035;-74
2023/05/14 02:09:02;;;;;;;2.90;1.70;;;;;;;6.83;100.00;92359.28;4917522;29;20383;-74
2023/05/14 02:11:27;;;;;;;4.75;1.70;;;;;;;6.83;100.00;92359.28;4917871;29;20043;-74
2023/05/14 02:13:53;;;;;;;2.58;1.52;;;;;;;6.79;100.00;92358.25;4934151;29;20043;-74
2023/05/14 02:16:19;;;;;;;2.78;1.50;;;;;;;6.79;100.00;92350.47;4918386;29;20042;-74
2023/05/14 02:18:44;;;;;;;2.35;1.55;;;;;;;6.79;100.00;92345.25;4934417;29;20466;-74
2023/05/14 02:21:10;;;;;;;2.42;1.50;;;;;;;6.81;100.00;92343.16;4917623;29;20040;-74
2023/05/14 02:23:35;;;;;;;2.63;1.52;;;;;;;6.83;100.00;92340.31;4934645;29;20031;-74
2023/05/14 02:26:01;;;;;;;2.22;1.35;;;;;;;6.81;100.00;92345.00;4902012;29;20043;-74
2023/05/14 02:28:27;;;;;;;3.35;1.70;;;;;;;6.78;100.00;92335.91;4917411;29;20045;-74
2023/05/14 02:30:58;;;;;;;2.15;1.50;;;;;;;6.75;100.00;92340.84;4917482;29;20506;-74
2023/05/14 02:33:23;;;;;;;3.40;1.40;;;;;;;6.74;100.00;92339.31;4920627;29;20044;-74
2023/05/14 02:35:49;;;;;;;4.40;1.40;;;;;;;6.75;100.00;92333.03;4934519;29;20398;-74
2023/05/14 02:38:15;;;;;;;2.70;1.40;;;;;;;6.72;100.00;92336.97;4934884;29;20303;-74
2023/05/14 02:40:40;;;;;;;2.60;1.50;;;;;;;6.72;100.00;92336.19;4917482;29;20038;-74
2023/05/14 02:43:06;;;;;;;4.85;1.58;;;;;;;6.73;100.00;92333.31;4934335;29;20040;-74
2023/05/14 02:45:31;;;;;;;2.10;1.40;;;;;;;6.73;100.00;92328.09;4933904;29;20498;-74
2023/05/14 02:47:57;;;;;;;2.33;1.48;;;;;;;6.74;100.00;92334.88;4901300;29;20039;-74
2023/05/14 02:50:23;;;;;;;3.45;1.60;;;;;;;6.73;100.00;92328.09;4932693;29;20492;-74
2023/05/14 02:52:48;;;;;;;2.67;1.52;;;;;;;6.72;100.00;92326.56;4933962;29;20051;-74
2023/05/14 02:55:14;;;;;;;4.53;1.70;;;;;;;6.75;100.00;92318.22;4934338;29;20485;-74
2023/05/14 02:57:39;;;;;;;2.15;1.55;;;;;;;6.73;100.00;92322.91;4917044;29;20040;-74
2023/05/14 03:00:06;;;;;;;3.63;1.60;;;;;;;6.75;100.00;92326.00;4932917;29;20086;-74
2023/05/14 03:02:32;;;;;;;3.28;1.50;;;;;;;6.73;100.00;92317.69;4934344;29;20040;-74
2023/05/14 03:04:57;;;;;;;3.30;1.60;;;;;;;6.74;100.00;92319.28;4912865;29;20091;-73
2023/05/14 03:07:23;;;;;;;10.43;5.10;;;;;;;6.73;100.00;92322.91;4917712;29;20091;-74
2023/05/14 03:09:48;;;;;;;5.90;2.65;;;;;;;6.71;100.00;92314.59;4932183;29;20031;-74
2023/05/14 03:12:14;;;;;;;3.63;2.03;;;;;;;6.71;100.00;92314.59;4932993;29;20044;-74
2023/05/14 03:14:40;;;;;;;2.40;1.60;;;;;;;6.70;100.00;92302.63;4932547;29;20035;-74
2023/05/14 03:17:07;;;;;;;2.83;1.60;;;;;;;6.70;100.00;92302.63;4917112;29;20036;-74
2023/05/14 03:19:32;;;;;;;2.85;1.75;;;;;;;6.70;100.00;92302.63;4932399;29;20035;-74
2023/05/14 03:21:58;;;;;;;3.35;1.60;;;;;;;6.70;100.00;92297.44;4933818;29;20422;-74
2023/05/14 03:24:24;;;;;;;2.97;1.40;;;;;;;6.67;100.00;92308.38;4933747;29;20027;-74
2023/05/14 03:26:50;;;;;;;2.92;1.58;;;;;;;6.65;100.00;92307.84;4933661;29;20039;-74
2023/05/14 03:29:16;;;;;;;8.30;1.83;;;;;;;6.62;100.00;92306.56;4933173;29;20375;-74
2023/05/14 03:31:42;;;;;;;2.95;1.63;;;;;;;6.59;100.00;92303.72;4933555;29;20061;-74
2023/05/14 03:34:09;;;;;;;3.30;1.35;;;;;;;6.59;100.00;92307.09;4933667;29;20070;-74
2023/05/14 03:36:38;;;;;;;2.47;1.60;;;;;;;6.59;100.00;92306.31;4932151;29;20123;-74
2023/05/14 03:39:05;;;;;;;6.65;1.60;;;;;;;6.59;100.00;92301.88;4933378;29;20024;-74
2023/05/14 03:41:31;;;;;;;2.67;1.45;;;;;;;6.63;100.00;92307.34;4931329;29;20498;-74
2023/05/14 03:43:57;;;;;;;3.03;1.60;;;;;;;6.60;100.00;92300.84;4923600;29;20371;-74
2023/05/14 03:46:23;;;;;;;2.70;1.60;;;;;;;6.59;100.00;92301.09;4931668;29;20046;-74
2023/05/14 03:48:48;;;;;;;2.42;1.52;;;;;;;6.58;100.00;92302.16;4933325;29;20042;-74
2023/05/14 03:51:14;;;;;;;1.75;1.33;;;;;;;6.57;100.00;92301.38;4916543;29;20480;-74
2023/05/14 03:53:40;;;;;;;2.60;1.60;;;;;;;6.58;100.00;92299.56;4931767;29;20047;-74
2023/05/14 03:56:06;;;;;;;2.80;1.50;;;;;;;6.55;100.00;92306.06;4929161;29;20052;-74
2023/05/14 03:58:31;;;;;;;2.00;1.42;;;;;;;6.53;100.00;92302.97;4916282;29;20038;-74
2023/05/14 04:00:59;;;;;;;2.85;1.60;;;;;;;6.54;100.00;92303.72;4900728;29;20107;-74
2023/05/14 04:03:24;;;;;;;2.17;1.50;;;;;;;6.58;100.00;92294.38;4933223;29;20074;-74
2023/05/14 04:05:50;;;;;;;2.67;1.58;;;;;;;6.58;100.00;92302.94;4920048;29;20449;-74
2023/05/14 04:08:15;;;;;;;2.75;1.50;;;;;;;6.57;100.00;92295.38;4919918;29;20035;-74
2023/05/14 04:10:41;;;;;;;3.17;1.60;;;;;;;6.59;100.00;92298.50;4937023;29;20028;-74
2023/05/14 04:13:07;;;;;;;2.58;1.70;;;;;;;6.59;100.00;92298.50;4934738;29;20064;-74
2023/05/14 04:15:37;;;;;;;2.35;1.60;;;;;;;6.57;100.00;92298.00;4935515;29;20130;-74
2023/05/14 04:18:02;;;;;;;2.42;1.50;;;;;;;6.58;100.00;92302.16;4920482;29;20383;-74
2023/05/14 04:20:28;;;;;;;2.33;1.50;;;;;;;6.58;100.00;92286.56;4920143;29;20038;-74
2023/05/14 04:22:54;;;;;;;2.72;1.65;;;;;;;6.59;100.00;92290.69;4933950;29;20126;-74
2023/05/14 04:25:19;;;;;;;4.13;1.65;;;;;;;6.59;100.00;92295.91;4925209;29;20043;-74
2023/05/14 04:27:45;;;;;;;3.30;1.70;;;;;;;6.62;100.00;92292.75;4936374;29;20197;-74
2023/05/14 04:30:11;;;;;;;2.60;1.63;;;;;;;6.63;100.00;92291.75;4936997;29;20482;-74
2023/05/14 04:32:36;;;;;;;5.25;1.60;;;;;;;6.66;100.00;92291.19;4936299;29;20024;-74
2023/05/14 04:35:03;;;;;;;4.85;1.50;;;;;;;6.68;100.00;92294.31;4935670;29;20382;-74
2023/05/14 04:37:29;;;;;;;4.65;1.60;;;;;;;6.71;100.00;92290.41;4936804;29;20513;-74
2023/05/14 04:39:55;;;;;;;2.65;1.70;;;;;;;6.75;100.00;92294.03;4936595;29;20565;-74
2023/05/14 04:42:21;;;;;;;3.67;1.80;;;;;;;6.77;100.00;92300.50;4915692;29;20040;-74
2023/05/14 04:44:47;;;;;;;2.47;1.60;;;;;;;6.80;100.00;92292.19;4930726;29;20525;-73
2023/05/14 04:47:13;;;;;;;3.58;1.77;;;;;;;6.84;100.00;92295.78;4936220;29;20086;-74
2023/05/14 04:49:38;;;;;;;2.45;1.55;;;;;;;6.86;100.00;92291.09;4936459;29;20040;-74
2023/05/14 04:52:05;;;;;;;3.20;1.60;;;;;;;6.91;100.00;92292.13;4919159;29;20035;-74
2023/05/14 04:54:31;;;;;;;2.83;1.60;;;;;;;6.93;100.00;92295.25;4918659;29;20036;-74
2023/05/14 04:57:01;;;;;;;2.72;1.55;;;;;;;6.95;100.00;92298.38;4934350;29;20031;-74
2023/05/14 04:59:28;;;;;;;2.33;1.50;;;;;;;6.94;100.00;92292.38;4935504;29;20066;-74
2023/05/14 05:01:54;;;;;;;2.58;1.60;;;;;;;6.94;100.00;92294.22;4934577;29;20043;-74
2023/05/14 05:04:19;;;;;;;3.08;1.88;;;;;;;6.96;100.00;92292.09;4935716;29;20091;-74
2023/05/14 05:06:45;;;;;;;2.13;1.50;;;;;;;6.99;100.00;92292.34;4935705;29;20024;-74
2023/05/14 05:09:11;;;;;;;3.10;1.75;;;;;;;7.02;100.00;92291.03;4936107;29;20047;-74
2023/05/14 05:11:37;;;;;;;4.15;1.75;;;;;;;7.04;100.00;92296.75;4934600;29;20038;-74
2023/05/14 05:14:03;;;;;;;3.15;1.73;;;;;;;7.06;100.00;92299.88;4936035;29;20040;-74
2023/05/14 05:16:28;;;;;;;3.10;1.70;;;;;;;7.08;100.00;92292.56;4936167;29;20042;-74
2023/05/14 05:18:54;;;;;;;3.67;1.75;;;;;;;7.14;100.00;92301.91;4919638;29;20039;-74
2023/05/14 05:21:20;;;;;;;3.22;1.90;;;;;;;7.17;100.00;92303.19;4919668;29;20048;-74
2023/05/14 05:23:45;;;;;;;3.97;1.88;;;;;;;7.22;100.00;92293.53;4936015;29;20094;-74
2023/05/14 05:26:11;;;;;;;4.22;1.65;;;;;;;7.37;100.00;92302.31;4937908;29;20036;-74
2023/05/14 05:28:36;;;;;;;2.15;1.60;;;;;;;7.42;100.00;92307.47;4942634;29;20090;-74
2023/05/14 05:31:02;;;;;;;3.03;1.70;;;;;;;7.43;100.00;92301.19;4935437;29;20453;-74
2023/05/14 05:33:28;;;;;;;3.83;1.90;;;;;;;7.49;100.00;92302.72;4935481;29;20464;-74
2023/05/14 05:35:53;;;;;;;2.78;1.75;;;;;;;7.56;100.00;92299.81;4935516;29;20032;-74
2023/05/14 05:38:19;;;;;;;3.08;1.80;;;;;;;7.62;100.00;92294.31;4933754;29;20407;-74
2023/05/14 05:40:45;;;;;;;2.72;1.55;;;;;;;7.69;100.00;92294.00;4935220;29;20036;-74
2023/05/14 05:43:12;;;;;;;3.50;1.55;;;;;;;7.78;100.00;92294.19;4935365;29;20115;-74
2023/05/14 05:45:38;;;;;;;3.70;1.70;;;;;;;7.89;100.00;92293.84;4931136;29;20087;-74
2023/05/14 05:48:04;;;;;;;3.80;1.80;;;;;;;7.99;100.00;92292.97;4933655;29;20074;-74
2023/05/14 05:50:30;;;;;;;2.92;1.75;;;;;;;8.08;100.00;92298.34;4935482;29;20032;-74
2023/05/14 05:52:58;;;;;;;2.38;1.60;;;;;;;8.19;100.00;92293.84;4934243;29;20043;-74
2023/05/14 05:55:24;;;;;;;6.40;2.00;;;;;;;8.14;100.00;92292.06;4934216;29;20063;-80
2023/05/14 05:57:50;;;;;;;5.88;2.00;;;;;;;8.24;100.00;92294.56;4940884;29;20553;-78
2023/05/14 06:00:16;;;;;;;3.83;2.20;;;;;;;8.24;100.00;92283.34;4940032;29;20047;-78
2023/05/14 06:02:45;;;;;;;5.47;2.40;;;;;;;8.32;100.00;92286.13;4940027;29;20086;-83
2023/05/14 06:05:11;;;;;;;5.65;2.28;;;;;;;8.44;100.00;92292.81;4940004;29;20036;-80
2023/05/14 06:07:37;;;;;;;3.45;2.15;;;;;;;8.56;100.00;92288.03;4941294;29;20066;-78
2023/05/14 06:10:04;;;;;;;3.67;2.03;;;;;;;8.64;100.00;92284.78;4942059;29;20028;-77
2023/05/14 06:12:29;;;;;;;4.65;2.70;;;;;;;8.78;100.00;92274.47;4937122;29;20063;-78
2023/05/14 06:14:56;;;;;;;4.07;2.00;;;;;;;8.89;100.00;92275.09;4938825;29;20031;-77
2023/05/14 06:17:25;;;;;;;4.75;1.90;;;;;;;8.96;100.00;92265.09;4935117;29;20054;-78
2023/05/14 06:19:51;;;;;;;2.22;1.45;;;;;;;9.02;100.00;92273.63;4922175;29;20501;-78
2023/05/14 06:22:18;;;;;;;3.42;1.92;;;;;;;9.09;100.00;92263.63;4936635;29;20036;-80
2023/05/14 06:24:43;;;;;;;3.90;1.90;;;;;;;9.11;100.00;92264.88;4936940;29;20062;-78
2023/05/14 06:27:10;;;;;;;3.20;1.77;;;;;;;9.20;100.00;92265.03;4938523;29;20043;-78
2023/05/14 06:29:36;;;;;;;2.33;1.60;;;;;;;9.28;100.00;92266.25;4919473;29;20035;-77
2023/05/14 06:32:04;;;;;;;3.30;1.73;;;;;;;9.33;100.00;92258.34;4922310;29;20493;-79
2023/05/14 06:34:30;;;;;;;3.40;1.67;;;;;;;9.48;100.00;92267.78;4923431;29;20031;-79
2023/05/14 06:36:58;;;;;;;2.42;1.58;;;;;;;9.53;100.00;92259.88;4945047;29;20035;-81
2023/05/14 06:39:24;;;;;;;4.53;1.85;;;;;;;9.47;100.00;92255.78;4906928;29;21388;-78
2023/05/14 06:41:50;;;;;;;2.88;1.83;;;;;;;9.61;100.00;92267.06;4934346;29;20581;-78
2023/05/14 06:44:18;;;;;;;4.72;3.05;;;;;;;9.52;100.00;92261.69;4937313;29;20040;-78
2023/05/14 06:46:43;;;;;;;47.58;3.95;;;;;;;9.33;100.00;92259.09;4922359;29;20036;-81
2023/05/14 06:49:09;;;;;;;5.88;3.95;;;;;;;9.18;100.00;92267.16;4902464;29;20039;-78
2023/05/14 06:51:37;;;;;;;5.65;3.50;;;;;;;9.09;100.00;92263.63;4922762;29;20063;-77
2023/05/14 06:54:05;;;;;;;5.25;3.30;;;;;;;9.03;100.00;92270.75;4936752;29;20048;-78
2023/05/14 06:56:30;;;;;;;4.80;3.30;;;;;;;8.94;100.00;92275.81;4935244;29;20138;-78
2023/05/14 06:58:57;;;;;;;6.15;3.00;;;;;;;9.00;100.00;92271.31;4933278;29;20039;-79
2023/05/14 07:01:23;;;;;;;6.63;3.58;;;;;;;9.12;100.00;92268.28;4922906;29;20071;-78
2023/05/14 07:03:48;;;;;;;6.07;4.10;;;;;;;9.35;100.00;92262.22;4940695;29;20060;-78
2023/05/14 07:06:14;;;;;;;5.60;3.85;;;;;;;9.57;100.00;92260.88;4914818;29;20036;-78
2023/05/14 07:08:44;;;;;;;6.93;3.30;;;;;;;9.74;100.00;92263.72;4932680;29;20375;-78
2023/05/14 07:11:12;;;;;;;5.07;2.55;;;;;;;9.67;100.00;92258.06;4929542;29;20106;-77
2023/05/14 07:13:38;;;;;;;4.38;2.30;;;;;;;9.67;100.00;92252.84;4902449;29;20035;-78
2023/05/14 07:16:04;;;;;;;5.32;2.35;;;;;;;9.70;100.00;92256.72;4917748;29;20042;-78
2023/05/14 07:18:30;;;;;;;4.10;2.10;;;;;;;9.76;100.00;92251.13;4917644;29;20035;-78
2023/05/14 07:20:55;;;;;;;3.90;2.35;;;;;;;9.69;100.00;92250.72;4932580;29;20131;-78
2023/05/14 07:23:21;;;;;;;3.58;2.08;;;;;;;9.64;100.00;92252.66;4937580;29;20122;-78
2023/05/14 07:25:47;;;;;;;5.68;3.08;;;;;;;9.64;100.00;92252.66;4921165;29;20046;-79
2023/05/14 07:28:12;;;;;;;5.28;2.70;;;;;;;9.66;100.00;92255.75;4917528;29;20032;-76
2023/05/14 07:30:38;;;;;;;7.32;2.45;;;;;;;9.53;100.00;92257.25;4927282;29;20083;-78
2023/05/14 07:33:04;;;;;;;5.80;2.67;;;;;;;9.44;100.00;92251.91;4932665;29;20474;-79
2023/05/14 07:35:29;;;;;;;4.38;2.30;;;;;;;9.42;100.00;92248.78;4929653;29;20043;-77
2023/05/14 07:37:56;;;;;;;4.45;2.55;;;;;;;9.41;100.00;92244.63;4925801;29;20035;-83
2023/05/14 07:40:23;;;;;;;5.55;2.75;;;;;;;9.42;100.00;92256.63;4932235;29;20027;-79
2023/05/14 07:42:50;;;;;;;4.85;2.70;;;;;;;9.35;100.00;92240.53;4923929;29;20307;-79
2023/05/14 07:45:15;;;;;;;4.30;2.80;;;;;;;9.65;100.00;92251.59;4913770;29;20046;-83
2023/05/14 07:47:41;;;;;;;8.25;3.00;;;;;;;9.73;100.00;92249.09;4919930;29;20477;-79
2023/05/14 07:50:07;;;;;;;4.47;2.50;;;;;;;9.78;100.00;92254.25;4914240;29;21304;-78
2023/05/14 07:52:33;;;;;;;4.53;2.63;;;;;;;9.85;100.00;92253.09;4915561;29;20083;-78
2023/05/14 07:55:00;;;;;;;4.80;2.65;;;;;;;9.63;100.00;92249.25;4927957;29;20044;-78
2023/05/14 07:57:26;;;;;;;6.15;3.38;;;;;;;9.66;100.00;92251.31;4926997;29;20040;-78
2023/05/14 07:59:51;;;;;;;4.35;2.83;;;;;;;9.85;100.00;92248.66;4927820;29;20035;-80
2023/05/14 08:02:17;;;;;;;5.53;3.20;;;;;;;9.95;100.00;92252.91;4913701;29;20123;-80
2023/05/14 08:04:43;;;;;;;4.40;2.67;;;;;;;10.10;100.00;92244.03;4917769;29;20032;-77
2023/05/14 08:07:08;;;;;;;4.28;2.80;;;;;;;10.25;100.00;92238.56;4901044;29;20120;-77
2023/05/14 08:09:34;;;;;;;4.63;2.45;;;;;;;10.56;100.00;92236.16;4931307;29;20036;-80
2023/05/14 08:12:00;;;;;;;4.80;2.00;;;;;;;10.68;100.00;92229.66;4939463;29;20039;-79
2023/05/14 08:14:27;;;;;;;3.20;1.92;;;;;;;10.72;100.00;92231.41;4940968;29;20051;-79
2023/05/14 08:16:53;;;;;;;3.03;1.77;;;;;;;10.83;100.00;92231.97;4906264;29;20035;-80
2023/05/14 08:19:18;;;;;;;2.20;1.40;;;;;;;10.91;100.00;92231.28;4922459;29;20045;-79
2023/05/14 08:21:44;;;;;;;2.20;1.30;;;;;;;11.03;100.00;92228.16;4934574;29;20028;-79
2023/05/14 08:24:10;;;;;;;7.80;4.03;;;;;;;11.14;100.00;92224.25;4934250;29;20051;-77
2023/05/14 08:26:35;;;;;;;5.03;3.00;;;;;;;11.27;100.00;92229.75;4935036;29;20769;-78
2023/05/14 08:29:02;;;;;;;4.38;2.30;;;;;;;11.29;100.00;92227.59;4912108;29;20083;-76
2023/05/14 08:31:27;;;;;;;3.40;2.15;;;;;;;11.28;100.00;92218.19;4931210;29;20050;-77
2023/05/14 08:33:53;;;;;;;37.88;23.80;;;;;;;11.63;100.00;92219.22;4932181;29;20043;-75
2023/05/14 08:36:19;;;;;;;4.10;2.80;;;;;;;11.94;100.00;92224.53;4929971;29;20035;-77
2023/05/14 08:38:45;;;;;;;11.38;7.80;;;;;;;12.31;100.00;92227.03;4916572;29;20040;-77
2023/05/14 08:41:11;;;;;;;376.25;258.42;;;;;;;12.27;100.00;92222.41;4935712;29;20051;-78
2023/05/14 08:43:50;;;;;;;165.93;87.15;;;;;;;12.62;100.00;92222.50;4936201;29;20035;-77
2023/05/14 08:46:16;;;;;;;4.32;2.30;;;;;;;12.64;100.00;92225.59;4927998;29;20044;-78
2023/05/14 08:48:50;;;;;;;23.63;10.35;;;;;;;12.76;100.00;92213.75;4914443;29;20031;-79
2023/05/14 08:51:15;;;;;;;3.33;1.33;;;;;;;13.04;100.00;92211.63;4933848;29;20040;-78
2023/05/14 08:53:42;;;;;;;9.40;4.70;;;;;;;13.13;100.00;92210.56;4934400;29;20793;-80
2023/05/14 08:56:08;;;;;;;3.70;1.95;;;;;;;13.13;100.00;92204.53;4937190;29;20130;-80
2023/05/14 08:58:34;;;;;;;3.35;1.70;;;;;;;13.43;100.00;92213.38;4947880;29;20046;-82
2023/05/14 09:01:00;;;;;;;1.98;1.23;;;;;;;13.46;100.00;92210.13;4909323;29;20035;-78
2023/05/14 09:03:26;;;;;;;3.38;1.70;;;;;;;13.19;100.00;92203.28;4926250;29;20039;-80
2023/05/14 09:05:52;;;;;;;2.72;1.50;;;;;;;13.70;100.00;92199.13;4927816;29;20074;-80
2023/05/14 09:08:18;;;;;;;2.80;1.60;;;;;;;13.54;100.00;92200.69;4937508;29;20032;-78
2023/05/14 09:10:44;;;;;;;2.75;1.48;;;;;;;13.99;100.00;92195.06;4904173;29;20034;-79
2023/05/14 09:13:10;;;;;;;1.58;1.17;;;;;;;14.02;100.00;92191.78;4937439;29;20195;-80
2023/05/14 09:15:37;;;;;;;1.77;1.17;;;;;;;13.59;100.00;92197.13;4943718;29;20061;-78
2023/05/14 09:18:06;;;;;;;2.03;1.20;;;;;;;13.35;100.00;92198.38;4940157;29;20039;-82
2023/05/14 09:20:32;;;;;;;2.95;1.63;;;;;;;13.43;100.00;92192.34;4938208;29;20074;-82
2023/05/14 09:23:01;;;;;;;2.80;1.52;;;;;;;13.23;100.00;92198.19;4902199;29;20035;-81
2023/05/14 09:25:30;;;;;;;2.92;1.60;;;;;;;13.42;100.00;92185.56;4923835;29;20035;-81
2023/05/14 09:27:57;;;;;;;4.18;2.00;;;;;;;13.80;100.00;92182.22;4941165;29;20067;-80
2023/05/14 09:30:23;;;;;;;3.60;2.10;;;;;;;13.74;100.00;92191.41;4926574;29;20064;-82
2023/05/14 09:32:52;;;;;;;4.88;2.30;;;;;;;13.84;100.00;92180.53;4943620;29;20040;-81
2023/05/14 09:35:21;;;;;;;5.72;1.80;;;;;;;14.29;100.00;92182.72;4940246;29;20042;-79
2023/05/14 09:37:54;;;;;;;3.53;2.05;;;;;;;14.30;100.00;92181.66;4943808;29;20258;-82
2023/05/14 09:40:22;;;;;;;4.53;1.90;;;;;;;14.36;100.00;92180.38;4927638;29;20042;-80
2023/05/14 09:42:48;;;;;;;3.15;1.80;;;;;;;14.34;100.00;92174.66;4943954;29;20394;-80
2023/05/14 09:45:15;;;;;;;4.13;1.65;;;;;;;14.09;100.00;92171.00;4929173;29;20573;-79
2023/05/14 09:47:41;;;;;;;2.97;1.60;;;;;;;14.34;100.00;92174.66;4904304;29;20059;-79
2023/05/14 09:50:07;;;;;;;2.60;1.70;;;;;;;14.17;100.00;92177.34;4945724;29;20028;-80
2023/05/14 09:52:34;;;;;;;3.03;1.60;;;;;;;14.35;100.00;92172.78;4930595;29;20060;-79
2023/05/14 09:55:00;;;;;;;2.50;1.30;;;;;;;14.46;98.45;92176.63;4934018;29;20032;-80
2023/05/14 09:57:26;;;;;;;1.98;1.30;;;;;;;14.18;99.29;92171.00;4940500;29;20040;-79
2023/05/14 09:59:52;;;;;;;2.03;1.45;;;;;;;14.62;100.00;92162.94;4935721;29;20036;-79
2023/05/14 10:02:29;;;;;;;129.82;50.92;;;;;;;15.04;95.90;92162.97;4937523;29;20115;-79
2023/05/14 10:04:59;;;;;;;4.72;2.60;;;;;;;15.11;92.09;92156.13;4935614;29;20035;-77
2023/05/14 10:07:31;;;;;;;3.17;1.95;;;;;;;15.32;95.28;92157.97;4938680;29;20032;-79
2023/05/14 10:10:00;;;;;;;;;;;;;;;15.48;100.00;92153.63;4922559;29;20063;-80
2023/05/14 10:12:31;;;;;;;6.95;3.28;;;;;;;15.69;93.98;92152.81;4938037;29;19915;-77
2023/05/14 10:15:02;;;;;;;19.98;9.48;;;;;;;15.90;93.24;92142.25;4932804;29;20031;-79
2023/05/14 10:17:31;;;;;;;195.73;72.88;;;;;;;16.11;98.82;92132.38;4939210;29;20083;-78
2023/05/14 10:20:01;;;;;;;370.77;182.90;;;;;;;16.08;95.69;92132.28;4939078;29;20020;-76
2023/05/14 10:22:32;;;;;;;102.25;51.30;;;;;;;16.39;96.69;92137.03;4914360;29;20054;-78
2023/05/14 10:24:59;;;;;;;52.50;24.55;;;;;;;15.47;88.95;92141.56;4936696;29;20660;-78
2023/05/14 10:27:25;;;;;;;212.38;121.93;;;;;;;15.54;83.98;92136.53;4939019;29;20687;-78
2023/05/14 10:29:53;;;;;;;402.08;205.55;;;;;;;15.53;76.62;92137.59;4920924;29;20111;-79
2023/05/14 10:32:20;;;;;;;99.05;60.38;;;;;;;15.76;80.02;92126.69;4933587;29;20497;-78
2023/05/14 10:34:47;;;;;;;42.35;21.15;;;;;;;16.14;70.82;92128.31;4938448;29;20039;-78
2023/05/14 10:37:18;;;;;;;2.13;1.42;;;;;;;15.90;69.26;92126.44;4937601;29;20035;-79
2023/05/14 10:39:45;;;;;;;3.42;1.65;;;;;;;16.01;73.50;92124.91;4937980;29;20030;-80
2023/05/14 10:42:15;;;;;;;4.03;1.60;;;;;;;16.06;74.71;92116.78;4936457;29;20098;-79
2023/05/14 10:45:00;;;;;;;3.70;2.15;;;;;;;16.18;74.53;92106.19;4935711;29;20038;-78
2023/05/14 10:47:27;;;;;;;2.92;1.40;;;;;;;16.56;74.43;92105.09;4933897;29;20095;-78
2023/05/14 10:49:56;;;;;;;242.52;117.35;;;;;;;15.97;72.60;92103.66;4937697;29;20038;-80
2023/05/14 10:52:23;;;;;;;3.63;2.13;;;;;;;16.07;72.56;92107.72;4911004;29;20031;-78
2023/05/14 10:55:01;;;;;;;1.58;1.10;;;;;;;15.52;73.28;92114.97;4920657;29;20039;-79
2023/05/14 10:57:29;;;;;;;2.13;1.15;;;;;;;14.83;73.19;92097.84;4940645;29;20095;-80
2023/05/14 10:59:57;;;;;;;4.00;1.38;;;;;;;14.98;79.95;92099.16;4940424;29;20028;-79
2023/05/14 11:02:28;;;;;;;3.20;1.35;;;;;;;15.06;76.31;92106.22;4936733;29;20663;-79
2023/05/14 11:05:04;;;;;;;1.65;1.15;;;;;;;14.62;76.79;92092.59;4940300;29;20474;-81
2023/05/14 11:07:40;;;;;;;26.90;11.25;;;;;;;14.42;83.92;92085.41;4935942;29;20058;-79
2023/05/14 11:10:08;;;;;;;1.73;1.30;;;;;;;14.40;83.45;92082.31;4931010;29;20091;-78
2023/05/14 11:12:36;;;;;;;2.92;1.27;;;;;;;14.50;86.38;92080.09;4939676;29;20063;-79
2023/05/14 11:15:09;;;;;;;2.72;1.35;;;;;;;14.55;78.27;92082.56;4934861;29;20036;-78
2023/05/14 11:17:36;;;;;;;2.70;1.40;;;;;;;14.41;80.90;92082.00;4937362;29;20067;-81
2023/05/14 11:20:04;;;;;;;2.35;1.40;;;;;;;14.01;86.21;92089.50;4939328;29;20490;-79
2023/05/14 11:22:30;;;;;;;2.28;1.38;;;;;;;13.94;78.54;92088.13;4937457;29;20134;-79
2023/05/14 11:24:56;;;;;;;4.00;1.30;;;;;;;13.93;80.31;92083.91;4933192;29;20052;-78
2023/05/14 11:27:25;;;;;;;2.65;1.60;;;;;;;14.04;80.40;92080.94;4929174;29;20031;-80
2023/05/14 11:29:51;;;;;;;2.38;1.38;;;;;;;14.28;85.52;92078.50;4920990;29;20504;-80